KLUK/LUK METAR and TAF weather

Enter ICAO airport designator
Station Type Date Time Source
KLUK METAR 2019/04/18 10:53 UTC NOAA

KLUK 181053Z 21013KT 10SM SCT065 20/10 A2978 RMK AO2 SLP080 T02000100


Station Type Date Time Source
KLUK Decoded METAR 2019/04/18 10:53 UTC NOAA

CINCINNATI MUN LUNKEN FLD, OH, United States (KLUK) 39-06N 84-25W 155M
Apr 18, 2019 - 06:53 AM EDT / 2019.04.18 1053 UTC
Wind: from the SSW (210 degrees) at 15 MPH (13 KT):0
Visibility: 10 mile(s):0
Sky conditions: partly cloudy
Temperature: 68.0 F (20.0 C)
Dew Point: 50.0 F (10.0 C)
Relative Humidity: 52%
Pressure (altimeter): 29.78 in. Hg (1008 hPa)
ob: KLUK 181053Z 21013KT 10SM SCT065 20/10 A2978 RMK AO2 SLP080 T02000100
cycle: 11

Station Type Date Time Source
KLUK TAF 2019/04/18 06:54 UTC NOAA

TAF KLUK 180551Z 1806/1906 21007KT P6SM SCT060
FM181000 20010KT P6SM VCSH BKN060
FM181200 20011KT P6SM BKN120 OVC200
FM181500 21015G25KT P6SM BKN120 OVC200
FM182300 20009KT P6SM VCSH BKN070
FM190300 20005KT P6SM -SHRA OVC050

Example: see airport list